createdAt,value
2023-01-20T00:02:17.659Z,99784.06
2023-01-20T00:05:19.309Z,99786.94
2023-01-20T00:08:21.205Z,99788.06
2023-01-20T00:11:23.334Z,99792.84
2023-01-20T00:14:27.705Z,99793.72
2023-01-20T00:17:29.605Z,99788.31
2023-01-20T00:20:31.247Z,99790.28
2023-01-20T00:23:33.677Z,99792.34
2023-01-20T00:26:35.327Z,99795.91
2023-01-20T00:29:38.266Z,99798.50
2023-01-20T00:32:44.723Z,99796.59
2023-01-20T00:35:46.812Z,99806.50
2023-01-20T00:38:49.509Z,99811.66
2023-01-20T00:41:51.223Z,99820.16
2023-01-20T00:44:54.296Z,99821.78
2023-01-20T00:47:55.907Z,99827.03
2023-01-20T00:50:57.700Z,99828.28
2023-01-20T00:53:59.453Z,99832.53
2023-01-20T00:57:01.062Z,99828.66
2023-01-20T01:00:05.124Z,99836.16
2023-01-20T01:03:06.902Z,99841.09
2023-01-20T01:06:10.619Z,99847.38
2023-01-20T01:09:12.236Z,99848.75
2023-01-20T01:12:13.806Z,99848.22
2023-01-20T01:15:16.926Z,99857.84
2023-01-20T01:18:18.706Z,99859.03
2023-01-20T01:21:21.241Z,99860.63
2023-01-20T01:24:22.976Z,99858.94
2023-01-20T01:27:24.559Z,99869.28
2023-01-20T01:30:27.717Z,99868.75
2023-01-20T01:33:29.821Z,99881.81
2023-01-20T01:36:31.486Z,99880.56
2023-01-20T01:39:33.240Z,99875.69
2023-01-20T01:42:35.108Z,99885.25
2023-01-20T01:45:38.487Z,99888.22
2023-01-20T01:48:44.103Z,99891.94
2023-01-20T01:51:50.572Z,99895.25
2023-01-20T01:54:53.116Z,99894.31
2023-01-20T01:57:56.059Z,99896.56
2023-01-20T02:01:00.250Z,99892.81
2023-01-20T02:04:07.319Z,99894.31
2023-01-20T02:07:11.987Z,99902.97
2023-01-20T02:10:14.842Z,99905.56
2023-01-20T02:13:16.880Z,99901.66
2023-01-20T02:16:34.961Z,99898.69
2023-01-20T02:20:02.876Z,99902.25
2023-01-20T02:23:12.282Z,99910.34
2023-01-20T02:26:40.558Z,99912.16
2023-01-20T02:30:09.214Z,99916.13
2023-01-20T02:33:15.941Z,99919.06
2023-01-20T02:36:26.157Z,99925.75
2023-01-20T02:39:31.575Z,99923.69
2023-01-20T02:42:37.899Z,99931.25
2023-01-20T02:45:45.619Z,99926.59
2023-01-20T02:48:51.655Z,99934.69
2023-01-20T02:51:58.387Z,99933.06
2023-01-20T02:55:06.065Z,99943.06
2023-01-20T02:58:10.773Z,99938.81
2023-01-20T03:01:17.044Z,99941.72
2023-01-20T03:04:25.216Z,99950.00
2023-01-20T03:07:30.176Z,99948.22
2023-01-20T03:10:35.776Z,99950.78
2023-01-20T03:13:43.218Z,99960.50
2023-01-20T03:16:48.184Z,99969.13
2023-01-20T03:19:51.551Z,99962.22
2023-01-20T03:22:53.276Z,99965.75
2023-01-20T03:25:56.507Z,99967.91
2023-01-20T03:28:59.139Z,99974.34
2023-01-20T03:32:03.695Z,99967.31
2023-01-20T03:35:07.410Z,99974.16
2023-01-20T03:38:10.089Z,99976.31
2023-01-20T03:41:20.146Z,99977.44
2023-01-20T03:44:28.808Z,99983.13
2023-01-20T03:47:46.559Z,99990.56
2023-01-20T03:50:55.640Z,99989.00
2023-01-20T03:54:02.204Z,99999.44
2023-01-20T03:57:09.544Z,99995.22
2023-01-20T04:00:13.037Z,99999.06
2023-01-20T04:03:18.588Z,99995.88
2023-01-20T04:06:26.050Z,99997.97
2023-01-20T04:09:31.759Z,100003.25
2023-01-20T04:12:33.473Z,100008.31
2023-01-20T04:15:40.519Z,100007.84
2023-01-20T04:18:42.986Z,100000.41
2023-01-20T04:21:49.929Z,100007.81
2023-01-20T04:24:56.228Z,100008.88
2023-01-20T04:27:58.050Z,100009.50
2023-01-20T04:30:59.755Z,100012.50
2023-01-20T04:34:01.565Z,100012.50
2023-01-20T04:37:04.783Z,100020.44
2023-01-20T04:40:07.655Z,100016.91
2023-01-20T04:43:10.274Z,100030.72
2023-01-20T04:46:12.222Z,100035.28
2023-01-20T04:49:14.027Z,100031.75
2023-01-20T04:52:17.648Z,100037.84
2023-01-20T04:55:19.339Z,100045.25
2023-01-20T04:58:20.986Z,100043.19
2023-01-20T05:01:22.747Z,100045.53
2023-01-20T05:04:24.443Z,100046.25
2023-01-20T05:07:27.611Z,100051.69
2023-01-20T05:10:29.291Z,100057.88
2023-01-20T05:13:31.109Z,100062.91
2023-01-20T05:16:33.985Z,100064.88
2023-01-20T05:19:35.632Z,100072.59
2023-01-20T05:22:38.669Z,100072.81
2023-01-20T05:25:40.416Z,100074.41
2023-01-20T05:28:44.227Z,100077.69
2023-01-20T05:31:45.914Z,100074.50
2023-01-20T05:34:47.559Z,100083.50
2023-01-20T05:37:52.761Z,100092.22
2023-01-20T05:40:59.612Z,100083.84
2023-01-20T05:44:01.208Z,100090.31
2023-01-20T05:47:02.905Z,100089.94
2023-01-20T05:50:05.612Z,100101.75
2023-01-20T05:53:08.573Z,100099.16
2023-01-20T05:56:12.757Z,100107.88
2023-01-20T05:59:14.440Z,100107.13
2023-01-20T06:02:18.643Z,100114.50
2023-01-20T06:05:20.375Z,100122.56
2023-01-20T06:08:23.426Z,100124.94
2023-01-20T06:11:25.099Z,100121.28
2023-01-20T06:14:26.730Z,100132.06
2023-01-20T06:17:28.416Z,100137.53
2023-01-20T06:20:30.112Z,100131.06
2023-01-20T06:23:33.142Z,100130.13
2023-01-20T06:26:34.833Z,100139.84
2023-01-20T06:29:36.508Z,100138.59
2023-01-20T06:32:38.200Z,100150.78
2023-01-20T06:35:39.832Z,100155.56
2023-01-20T06:38:48.242Z,100151.22
2023-01-20T06:41:49.872Z,100147.78
2023-01-20T06:44:51.723Z,100151.78
2023-01-20T06:47:53.337Z,100146.13
2023-01-20T06:51:00.524Z,100150.22
2023-01-20T06:54:03.644Z,100157.00
2023-01-20T06:57:05.229Z,100166.16
2023-01-20T07:00:08.641Z,100175.94
2023-01-20T07:03:12.446Z,100174.22
2023-01-20T07:06:17.492Z,100184.38
2023-01-20T07:09:20.526Z,100193.97
2023-01-20T07:12:22.479Z,100196.03
2023-01-20T07:15:24.232Z,100203.47
2023-01-20T07:18:26.059Z,100202.66
2023-01-20T07:21:28.023Z,100215.09
2023-01-20T07:24:31.071Z,100219.44
2023-01-20T07:27:32.722Z,100223.88
2023-01-20T07:30:34.419Z,100227.00
2023-01-20T07:33:36.927Z,100225.69
2023-01-20T07:36:38.540Z,100237.91
2023-01-20T07:39:42.177Z,100235.13
2023-01-20T07:42:43.853Z,100243.47
2023-01-20T07:45:45.581Z,100244.53
2023-01-20T07:48:47.379Z,100244.94
2023-01-20T07:51:49.110Z,100234.16
2023-01-20T07:54:52.076Z,100244.75
2023-01-20T07:57:53.848Z,100244.75
2023-01-20T08:00:55.966Z,100244.75
2023-01-20T08:04:00.500Z,100244.78
2023-01-20T08:07:02.265Z,100257.94
2023-01-20T08:10:06.684Z,100262.19
2023-01-20T08:13:08.490Z,100266.13
2023-01-20T08:16:12.282Z,100265.38
2023-01-20T08:19:13.954Z,100266.97
2023-01-20T08:22:15.667Z,100273.97
2023-01-20T08:25:18.630Z,100269.84
2023-01-20T08:28:20.271Z,100269.75
2023-01-20T08:31:24.659Z,100284.91
2023-01-20T08:34:26.632Z,100287.84
2023-01-20T08:37:28.302Z,100289.03
2023-01-20T08:40:33.302Z,100290.41
2023-01-20T08:43:35.861Z,100294.75
2023-01-20T08:46:40.550Z,100295.91
2023-01-20T08:49:43.283Z,100298.47
2023-01-20T08:52:44.953Z,100290.41
2023-01-20T08:55:56.389Z,100294.72
2023-01-20T08:58:58.806Z,100291.00
2023-01-20T09:02:00.661Z,100297.63
2023-01-20T09:05:03.373Z,100287.97
2023-01-20T09:08:05.420Z,100293.03
2023-01-20T09:11:10.639Z,100292.19
2023-01-20T09:14:12.261Z,100302.13
2023-01-20T09:17:14.953Z,100303.91
2023-01-20T09:20:17.111Z,100302.16
2023-01-20T09:23:18.788Z,100308.84
2023-01-20T09:26:34.749Z,100318.66
2023-01-20T09:29:37.515Z,100318.66
2023-01-20T09:32:39.204Z,100324.75
2023-01-20T09:35:40.859Z,100324.03
2023-01-20T09:39:01.247Z,100330.31
2023-01-20T09:42:35.097Z,100338.63
2023-01-20T09:45:43.156Z,100327.25
2023-01-20T09:49:11.857Z,100341.63
2023-01-20T09:52:38.749Z,100345.56
2023-01-20T09:55:46.737Z,100343.94
2023-01-20T09:58:55.848Z,100344.25
2023-01-20T10:02:01.547Z,100349.28
2023-01-20T10:05:11.617Z,100346.75
2023-01-20T10:08:19.147Z,100353.75
2023-01-20T10:11:22.652Z,100352.34
2023-01-20T10:14:35.044Z,100351.56
2023-01-20T10:17:40.695Z,100346.78
2023-01-20T10:20:45.586Z,100359.19
2023-01-20T10:23:53.484Z,100359.78
2023-01-20T10:27:00.987Z,100357.13
2023-01-20T10:30:09.127Z,100360.25
2023-01-20T10:33:12.613Z,100368.22
2023-01-20T10:36:19.370Z,100357.97
2023-01-20T10:39:28.532Z,100362.97
2023-01-20T10:42:30.262Z,100358.84
2023-01-20T10:45:49.080Z,100356.97
2023-01-20T10:49:07.333Z,100352.13
2023-01-20T10:52:23.906Z,100355.13
2023-01-20T10:55:38.059Z,100349.00
2023-01-20T10:58:45.076Z,100357.16
2023-01-20T11:02:02.447Z,100359.22
2023-01-20T11:05:17.600Z,100358.56
2023-01-20T11:08:22.373Z,100359.97
2023-01-20T11:11:25.605Z,100356.84
2023-01-20T11:14:27.350Z,100357.84
2023-01-20T11:17:30.390Z,100354.91
2023-01-20T11:20:32.303Z,100358.59
2023-01-20T11:23:40.056Z,100358.31
2023-01-20T11:26:41.786Z,100361.63
2023-01-20T11:29:48.101Z,100350.97
2023-01-20T11:33:07.647Z,100356.16
2023-01-20T11:36:18.987Z,100364.03
2023-01-20T11:39:29.086Z,100366.53
2023-01-20T11:42:44.960Z,100366.44
2023-01-20T11:45:47.289Z,100358.03
2023-01-20T11:49:02.134Z,100363.53
2023-01-20T11:52:20.158Z,100370.94
2023-01-20T11:55:24.009Z,100364.69
2023-01-20T11:58:28.387Z,100356.03
2023-01-20T12:01:49.496Z,100359.94
2023-01-20T12:05:04.266Z,100353.81
2023-01-20T12:08:14.219Z,100351.88
2023-01-20T12:11:21.358Z,100356.41
2023-01-20T12:14:28.615Z,100347.88
2023-01-20T12:17:53.934Z,100349.53
2023-01-20T12:21:01.594Z,100349.88
2023-01-20T12:24:09.624Z,100348.56
2023-01-20T12:27:20.614Z,100354.25
2023-01-20T12:30:40.183Z,100348.50
2023-01-20T12:33:45.485Z,100348.06
2023-01-20T12:37:16.753Z,100350.31
2023-01-20T12:40:32.570Z,100348.22
2023-01-20T12:43:52.587Z,100351.81
2023-01-20T12:47:04.213Z,100351.41
2023-01-20T12:50:27.081Z,100350.06
2023-01-20T12:53:46.690Z,100345.81
2023-01-20T12:56:56.522Z,100350.69
2023-01-20T13:00:22.206Z,100346.69
2023-01-20T13:03:55.967Z,100352.75
2023-01-20T13:07:13.944Z,100347.06
2023-01-20T13:10:45.927Z,100352.13
2023-01-20T13:14:06.562Z,100358.50
2023-01-20T13:17:18.810Z,100360.91
2023-01-20T13:20:23.259Z,100364.41
2023-01-20T13:23:27.126Z,100359.38
2023-01-20T13:26:31.785Z,100365.16
2023-01-20T13:29:53.662Z,100371.63
2023-01-20T13:33:03.121Z,100372.91
2023-01-20T13:36:17.205Z,100376.22
2023-01-20T13:39:40.835Z,100378.81
2023-01-20T13:42:51.428Z,100373.97
2023-01-20T13:46:32.978Z,100373.75
2023-01-20T13:49:49.737Z,100375.41
2023-01-20T13:53:23.692Z,100368.91
2023-01-20T13:56:42.781Z,100372.94
2023-01-20T13:59:45.779Z,100372.22
2023-01-20T14:02:49.140Z,100380.78
2023-01-20T14:05:52.873Z,100377.47
2023-01-20T14:08:54.715Z,100387.50
2023-01-20T14:11:57.641Z,100386.41
2023-01-20T14:15:01.521Z,100388.13
2023-01-20T14:18:04.287Z,100390.00
2023-01-20T14:21:19.013Z,100391.81
2023-01-20T14:24:28.353Z,100383.69
2023-01-20T14:27:32.186Z,100382.56
2023-01-20T14:30:35.387Z,100383.63
2023-01-20T14:33:43.563Z,100377.84
2023-01-20T14:36:46.248Z,100374.34
2023-01-20T14:39:49.748Z,100385.88
2023-01-20T14:42:56.130Z,100385.09
2023-01-20T14:45:59.738Z,100378.28
2023-01-20T14:49:03.483Z,100383.41
2023-01-20T14:52:05.976Z,100384.13
2023-01-20T14:55:29.385Z,100383.75
2023-01-20T15:01:01.771Z,100392.03
2023-01-20T15:04:05.884Z,100396.78
2023-01-20T15:07:17.913Z,100397.50
2023-01-20T15:10:19.694Z,100399.72
2023-01-20T15:13:24.257Z,100401.72
2023-01-20T15:16:28.928Z,100403.38
2023-01-20T15:19:32.606Z,100412.47
2023-01-20T15:22:34.277Z,100412.25
2023-01-20T15:25:36.947Z,100406.88
2023-01-20T15:28:43.097Z,100417.47
2023-01-20T15:31:46.229Z,100425.94
2023-01-20T15:34:47.933Z,100429.75
2023-01-20T15:37:50.937Z,100435.97
2023-01-20T15:40:55.725Z,100438.19
2023-01-20T15:43:57.373Z,100441.06
2023-01-20T15:47:00.541Z,100432.66
2023-01-20T15:50:02.304Z,100440.00
2023-01-20T15:53:06.323Z,100444.22
2023-01-20T15:56:23.903Z,100453.81
2023-01-20T15:59:25.863Z,100449.16
2023-01-20T16:02:28.963Z,100454.69
2023-01-20T16:05:30.799Z,100452.47
2023-01-20T16:08:36.686Z,100459.72
2023-01-20T16:11:38.318Z,100461.00
2023-01-20T16:14:40.246Z,100463.78
2023-01-20T16:17:43.489Z,100459.38
2023-01-20T16:20:47.415Z,100457.31
2023-01-20T16:23:49.099Z,100465.94
2023-01-20T16:26:50.765Z,100459.31
2023-01-20T16:29:53.132Z,100468.81
2023-01-20T16:32:56.163Z,100464.16
2023-01-20T16:35:57.842Z,100470.69
2023-01-20T16:38:59.556Z,100470.88
2023-01-20T16:42:01.304Z,100479.38
2023-01-20T16:45:03.276Z,100477.84
2023-01-20T16:48:09.092Z,100482.56
2023-01-20T16:51:13.228Z,100479.19
2023-01-20T16:54:15.091Z,100484.50
2023-01-20T16:57:16.706Z,100486.50
2023-01-20T17:00:19.914Z,100491.53
2023-01-20T17:03:25.556Z,100495.81
2023-01-20T17:06:29.920Z,100491.41
2023-01-20T17:09:31.662Z,100494.94
2023-01-20T17:12:33.354Z,100499.47
2023-01-20T17:15:36.961Z,100510.94
2023-01-20T17:18:45.637Z,100512.16
2023-01-20T17:21:47.402Z,100518.66
2023-01-20T17:24:49.066Z,100517.38
2023-01-20T17:27:50.775Z,100521.97
2023-01-20T17:30:52.435Z,100520.13
2023-01-20T17:33:55.412Z,100539.75
2023-01-20T17:36:57.097Z,100539.66
2023-01-20T17:40:00.369Z,100542.50
2023-01-20T17:43:02.251Z,100546.06
2023-01-20T17:46:12.738Z,100553.16
2023-01-20T17:49:16.057Z,100561.75
2023-01-20T17:52:20.070Z,100571.47
2023-01-20T17:55:21.799Z,100579.84
2023-01-20T17:58:23.354Z,100590.16
2023-01-20T18:01:27.056Z,100593.88
2023-01-20T18:04:30.353Z,100601.09
2023-01-20T18:07:32.177Z,100596.53
2023-01-20T18:10:33.841Z,100595.69
2023-01-20T18:13:36.072Z,100594.56
2023-01-20T18:16:39.465Z,100598.06
2023-01-20T18:19:42.685Z,100598.47
2023-01-20T18:22:47.309Z,100601.03
2023-01-20T18:25:53.220Z,100596.47
2023-01-20T18:28:55.683Z,100603.03
2023-01-20T18:31:58.173Z,100603.22
2023-01-20T18:35:01.227Z,100616.03
2023-01-20T18:38:02.925Z,100622.63
2023-01-20T18:41:05.284Z,100620.03
2023-01-20T18:44:07.367Z,100608.56
2023-01-20T18:47:08.999Z,100617.34
2023-01-20T18:50:12.296Z,100618.16
2023-01-20T18:53:13.939Z,100614.16
2023-01-20T18:56:15.858Z,100606.63
2023-01-20T18:59:17.953Z,100613.00
2023-01-20T19:02:19.744Z,100612.06
2023-01-20T19:05:22.708Z,100615.38
2023-01-20T19:11:45.272Z,100608.78
2023-01-20T19:14:46.887Z,100609.59
2023-01-20T19:17:50.447Z,100610.00
2023-01-20T19:20:53.530Z,100614.88
2023-01-20T19:23:56.985Z,100617.41
2023-01-20T19:27:00.347Z,100613.16
2023-01-20T19:30:02.144Z,100620.94
2023-01-20T19:33:04.286Z,100623.59
2023-01-20T19:36:10.511Z,100619.50
2023-01-20T19:39:12.351Z,100610.53
2023-01-20T19:42:14.338Z,100615.13
2023-01-20T19:45:16.290Z,100618.84
2023-01-20T19:48:18.035Z,100617.28
2023-01-20T19:51:21.354Z,100616.97
2023-01-20T19:54:24.387Z,100619.50
2023-01-20T19:57:27.227Z,100626.66
2023-01-20T20:00:29.032Z,100625.66
2023-01-20T20:03:30.821Z,100628.38
2023-01-20T20:06:34.997Z,100630.25
2023-01-20T20:09:36.662Z,100624.47
2023-01-20T20:12:38.321Z,100633.41
2023-01-20T20:15:40.053Z,100630.75
2023-01-20T20:18:41.790Z,100635.22
2023-01-20T20:21:45.212Z,100636.50
2023-01-20T20:24:47.079Z,100643.19
2023-01-20T20:27:48.728Z,100642.63
2023-01-20T20:30:50.877Z,100644.69
2023-01-20T20:33:52.592Z,100642.00
2023-01-20T20:36:55.606Z,100648.91
2023-01-20T20:39:57.321Z,100646.72
2023-01-20T20:42:59.002Z,100652.88
2023-01-20T20:46:01.352Z,100647.19
2023-01-20T20:49:03.145Z,100657.09
2023-01-20T20:52:06.236Z,100652.66
2023-01-20T20:55:10.244Z,100660.22
2023-01-20T20:58:13.340Z,100659.69
2023-01-20T21:01:18.651Z,100662.13
2023-01-20T21:04:20.492Z,100662.22
2023-01-20T21:07:23.557Z,100658.97
2023-01-20T21:10:25.321Z,100658.31
2023-01-20T21:13:27.481Z,100668.50
2023-01-20T21:16:29.352Z,100670.53
2023-01-20T21:19:31.201Z,100668.44
2023-01-20T21:22:34.360Z,100671.25
2023-01-20T21:25:35.983Z,100674.47
2023-01-20T21:28:39.639Z,100673.34
2023-01-20T21:31:41.381Z,100670.81
2023-01-20T21:34:43.082Z,100674.00
2023-01-20T21:37:47.683Z,100675.31
2023-01-20T21:41:01.390Z,100675.31
2023-01-20T21:44:23.306Z,100673.34
2023-01-20T21:47:25.368Z,100674.25
2023-01-20T21:50:46.051Z,100678.13
2023-01-20T21:53:51.438Z,100683.47
2023-01-20T21:56:52.944Z,100682.66
2023-01-20T21:59:55.035Z,100687.38
2023-01-20T22:02:56.690Z,100689.22
2023-01-20T22:05:58.411Z,100693.06
2023-01-20T22:09:01.668Z,100693.06
2023-01-20T22:12:03.565Z,100703.72
2023-01-20T22:15:06.642Z,100706.09
2023-01-20T22:49:47.270Z,100736.53
2023-01-20T22:52:49.336Z,100738.28
2023-01-20T22:56:00.651Z,100745.25
2023-01-20T22:59:05.330Z,100743.78
2023-01-20T23:02:07.155Z,100751.88
2023-01-20T23:05:09.417Z,100761.22
2023-01-20T23:08:11.333Z,100761.81
2023-01-20T23:11:15.628Z,100765.28
2023-01-20T23:14:38.673Z,100767.38
2023-01-20T23:17:40.518Z,100770.59
2023-01-20T23:20:42.302Z,100776.09
2023-01-20T23:23:44.490Z,100778.03
2023-01-20T23:26:46.187Z,100779.31
2023-01-20T23:29:49.323Z,100771.25
2023-01-20T23:32:51.459Z,100779.59
2023-01-20T23:35:53.239Z,100789.78
2023-01-20T23:38:56.599Z,100786.16
2023-01-20T23:41:58.417Z,100798.78
2023-01-20T23:45:01.449Z,100796.22
2023-01-20T23:48:03.174Z,100806.47
2023-01-20T23:51:06.686Z,100804.66
2023-01-20T23:54:11.209Z,100799.22
2023-01-20T23:57:13.155Z,100809.56
